Euro IV — IQNH — position and weather

sailwx.info

Track history (hours):
 
Tides and Currents Weather Stations Pressure Air Temp Water Temp Dewpoint Dewpoint Depression Visibility Wind Speed Wind Dir Waves Ship Positions

Euro IV

Last reported at 2016-Apr-29 14:19 UTC. Time now 2016-Apr-30 11:14 UTC.
Position N 44°06' E 009°50'.

Length 25 m; draft 1.3 m.

Type: Passenger vessel. MMSI: 247131500.

Date/timePositionNaut miles runAvg speedWind from/ knotsBaromVisibWave heightAir tempDewpointWater temp
2016-Apr-29 14:19N 44°06' E 009°50'3 4.2
2016-Apr-29 13:33N 44°04' E 009°47'7 6.9
2016-Apr-29 12:33N 44°09' E 009°39'0 0.1
2016-Apr-29 11:33N 44°09' E 009°39'0 0.4
2016-Apr-29 10:33N 44°08' E 009°40'1 0.8
2016-Apr-29 09:30N 44°08' E 009°41'8 8.9
2016-Apr-29 08:33N 44°03' E 009°50'0 0.1
2016-Apr-29 07:33N 44°03' E 009°50'3 3.0
2016-Apr-29 06:33N 44°06' E 009°50'1 0.1
2016-Apr-28 15:33N 44°05' E 009°51'2 1.8
2016-Apr-28 14:33N 44°03' E 009°50'3 3.1
2016-Apr-28 13:33N 44°06' E 009°50'3 3.2
2016-Apr-28 12:33N 44°03' E 009°51'3 3.2
2016-Apr-28 11:33N 44°06' E 009°50'0 0.0
2016-Apr-28 10:33N 44°06' E 009°50'1 0.7
2016-Apr-28 09:33N 44°06' E 009°50'2 2.2
2016-Apr-28 08:33N 44°04' E 009°51'3 2.8
2016-Apr-28 07:33N 44°06' E 009°50'  
2016-Apr-25 15:33N 44°05' E 009°51'2 1.8
2016-Apr-25 14:33N 44°03' E 009°51'6 6.0
2016-Apr-25 13:33N 44°06' E 009°44'4 4.2
2016-Apr-25 12:33N 44°09' E 009°39'0 0.0
2016-Apr-25 11:30N 44°09' E 009°39'4 4.4
2016-Apr-25 10:33N 44°06' E 009°44'1 1.1
2016-Apr-25 09:33N 44°07' E 009°42'4 3.9
2016-Apr-25 08:33N 44°04' E 009°46'3 3.1
2016-Apr-25 07:33N 44°06' E 009°50'0 0.0
2016-Apr-24 15:19N 44°06' E 009°50'3 4.1
2016-Apr-24 14:34N 44°03' E 009°51'3 3.1
2016-Apr-24 13:33N 44°04' E 009°55'3 3.4
2016-Apr-24 12:33N 44°03' E 009°50'0 0.0
2016-Apr-24 11:33N 44°03' E 009°50'8 7.5
2016-Apr-24 10:32N 44°07' E 009°41'7 7.5
2016-Apr-24 09:34N 44°05' E 009°51'2 1.6
2016-Apr-24 08:34N 44°06' E 009°50'0 0.0
2016-Apr-24 07:34N 44°06' E 009°50'0 0.0
2016-Apr-22 16:23N 44°06' E 009°50'6 7.0
2016-Apr-22 15:33N 44°06' E 009°42'2 1.7
2016-Apr-22 14:30N 44°06' E 009°44'5 5.5
2016-Apr-22 13:33N 44°03' E 009°50'0 0.0
2016-Apr-22 12:33N 44°03' E 009°50'2 2.3
2016-Apr-22 11:33N 44°04' E 009°47'7 7.3
2016-Apr-22 10:33N 44°09' E 009°39'1 1.2
2016-Apr-22 09:31N 44°08' E 009°41'8 8.8
2016-Apr-22 08:34N 44°03' E 009°50'3 3.1
2016-Apr-22 07:33N 44°06' E 009°50'0 0.0
2016-Apr-21 13:33N 44°06' E 009°50'3 3.0
2016-Apr-21 12:34N 44°03' E 009°51'1 1.0
2016-Apr-21 11:33N 44°04' E 009°51'8 6.5
2016-Apr-21 10:19N 44°08' E 009°41'1 1.4
2016-Apr-21 09:33N 44°07' E 009°40'0 0.5
2016-Apr-21 08:33N 44°07' E 009°41'5 5.1
2016-Apr-21 07:33N 44°04' E 009°46'3 3.4
2016-Apr-21 06:33N 44°06' E 009°50'0 0.0
2016-Apr-20 17:34N 44°06' E 009°50'10 8.8
2016-Apr-20 16:25N 44°09' E 009°37'6 6.3
2016-Apr-20 15:28N 44°06' E 009°44'5 5.7
2016-Apr-20 14:33N 44°03' E 009°50'0 0.4
2016-Apr-20 13:34N 44°03' E 009°50'9 9.5
2016-Apr-20 12:33N 44°09' E 009°39'0 0.0
2016-Apr-20 11:33N 44°09' E 009°39'4 4.1
2016-Apr-20 10:28N 44°06' E 009°44'  
Track history (hours):
 
Tides and Currents Weather Stations Pressure Air Temp Water Temp Dewpoint Dewpoint Depression Visibility Wind Speed Wind Dir Waves Ship Positions

Euro IV

Last reported at 2016-Apr-29 14:19 UTC. Time now 2016-Apr-30 11:14 UTC.
Position N 44°06' E 009°50'.

Length 25 m; draft 1.3 m.

Type: Passenger vessel. MMSI: 247131500.

Date/timePositionNaut miles runAvg speedWind from/ knotsBaromVisibWave heightAir tempDewpointWater temp
2016-Apr-29 14:19N 44°06' E 009°50'3 4.2
2016-Apr-29 13:33N 44°04' E 009°47'7 6.9
2016-Apr-29 12:33N 44°09' E 009°39'0 0.1
2016-Apr-29 11:33N 44°09' E 009°39'0 0.4
2016-Apr-29 10:33N 44°08' E 009°40'1 0.8
2016-Apr-29 09:30N 44°08' E 009°41'8 8.9
2016-Apr-29 08:33N 44°03' E 009°50'0 0.1
2016-Apr-29 07:33N 44°03' E 009°50'3 3.0
2016-Apr-29 06:33N 44°06' E 009°50'1 0.1
2016-Apr-28 15:33N 44°05' E 009°51'2 1.8
2016-Apr-28 14:33N 44°03' E 009°50'3 3.1
2016-Apr-28 13:33N 44°06' E 009°50'3 3.2
2016-Apr-28 12:33N 44°03' E 009°51'3 3.2
2016-Apr-28 11:33N 44°06' E 009°50'0 0.0
2016-Apr-28 10:33N 44°06' E 009°50'1 0.7
2016-Apr-28 09:33N 44°06' E 009°50'2 2.2
2016-Apr-28 08:33N 44°04' E 009°51'3 2.8
2016-Apr-28 07:33N 44°06' E 009°50'  
2016-Apr-25 15:33N 44°05' E 009°51'2 1.8
2016-Apr-25 14:33N 44°03' E 009°51'6 6.0
2016-Apr-25 13:33N 44°06' E 009°44'4 4.2
2016-Apr-25 12:33N 44°09' E 009°39'0 0.0
2016-Apr-25 11:30N 44°09' E 009°39'4 4.4
2016-Apr-25 10:33N 44°06' E 009°44'1 1.1
2016-Apr-25 09:33N 44°07' E 009°42'4 3.9
2016-Apr-25 08:33N 44°04' E 009°46'3 3.1
2016-Apr-25 07:33N 44°06' E 009°50'0 0.0
2016-Apr-24 15:19N 44°06' E 009°50'3 4.1
2016-Apr-24 14:34N 44°03' E 009°51'3 3.1
2016-Apr-24 13:33N 44°04' E 009°55'3 3.4
2016-Apr-24 12:33N 44°03' E 009°50'0 0.0
2016-Apr-24 11:33N 44°03' E 009°50'8 7.5
2016-Apr-24 10:32N 44°07' E 009°41'7 7.5
2016-Apr-24 09:34N 44°05' E 009°51'2 1.6
2016-Apr-24 08:34N 44°06' E 009°50'0 0.0
2016-Apr-24 07:34N 44°06' E 009°50'0 0.0
2016-Apr-22 16:23N 44°06' E 009°50'6 7.0
2016-Apr-22 15:33N 44°06' E 009°42'2 1.7
2016-Apr-22 14:30N 44°06' E 009°44'5 5.5
2016-Apr-22 13:33N 44°03' E 009°50'0 0.0
2016-Apr-22 12:33N 44°03' E 009°50'2 2.3
2016-Apr-22 11:33N 44°04' E 009°47'7 7.3
2016-Apr-22 10:33N 44°09' E 009°39'1 1.2
2016-Apr-22 09:31N 44°08' E 009°41'8 8.8
2016-Apr-22 08:34N 44°03' E 009°50'3 3.1
2016-Apr-22 07:33N 44°06' E 009°50'0 0.0
2016-Apr-21 13:33N 44°06' E 009°50'3 3.0
2016-Apr-21 12:34N 44°03' E 009°51'1 1.0
2016-Apr-21 11:33N 44°04' E 009°51'8 6.5
2016-Apr-21 10:19N 44°08' E 009°41'1 1.4
2016-Apr-21 09:33N 44°07' E 009°40'0 0.5
2016-Apr-21 08:33N 44°07' E 009°41'5 5.1
2016-Apr-21 07:33N 44°04' E 009°46'3 3.4
2016-Apr-21 06:33N 44°06' E 009°50'0 0.0
2016-Apr-20 17:34N 44°06' E 009°50'10 8.8
2016-Apr-20 16:25N 44°09' E 009°37'6 6.3
2016-Apr-20 15:28N 44°06' E 009°44'5 5.7
2016-Apr-20 14:33N 44°03' E 009°50'0 0.4
2016-Apr-20 13:34N 44°03' E 009°50'9 9.5
2016-Apr-20 12:33N 44°09' E 009°39'0 0.0
2016-Apr-20 11:33N 44°09' E 009°39'4 4.1
2016-Apr-20 10:28N 44°06' E 009°44'  

Dump ship's entire track history